Time;durP1;ratioP1;P1;durP2;ratioP2;P2;SDS_P1;SDS_P2;PMS_P1;PMS_P2;Temp;Humidity;BMP_temperature;BMP_pressure;BME280_temperature;BME280_humidity;BME280_pressure;Samples;Min_cycle;Max_cycle;Signal;HPM_P1;HPM_P2
2023/04/09 00:00:15;;;;;;;56.33;31.38;;;;;;;6.21;71.19;99149.91;5057792;28;20037;-71
2023/04/09 00:02:40;;;;;;;50.10;28.88;;;;;;;6.20;71.72;99150.16;5048317;28;20078;-71
2023/04/09 00:05:06;;;;;;;48.30;26.27;;;;;;;6.18;71.69;99152.28;5050788;28;20063;-71
2023/04/09 00:07:32;;;;;;;42.80;25.42;;;;;;;6.17;71.58;99153.38;5050983;28;20370;-71
2023/04/09 00:09:57;;;;;;;39.67;23.08;;;;;;;6.16;71.56;99155.28;5050698;28;20036;-71
2023/04/09 00:12:23;;;;;;;40.33;23.08;;;;;;;6.15;72.07;99137.28;5049936;28;20024;-71
2023/04/09 00:14:48;;;;;;;46.20;24.10;;;;;;;6.13;71.93;99130.44;5049824;28;20115;-71
2023/04/09 00:17:13;;;;;;;47.63;24.10;;;;;;;6.12;71.82;99132.34;5050548;28;20404;-71
2023/04/09 00:19:39;;;;;;;50.05;24.27;;;;;;;6.10;72.74;99134.50;5050358;28;20056;-71
2023/04/09 00:22:04;;;;;;;40.15;21.73;;;;;;;6.09;71.98;99138.28;5049889;28;20017;-71
2023/04/09 00:24:29;;;;;;;35.58;21.17;;;;;;;6.13;71.89;99138.59;5050410;28;20024;-71
2023/04/09 00:26:55;;;;;;;37.65;21.05;;;;;;;6.15;72.11;99126.41;5050295;28;20017;-71
2023/04/09 00:29:20;;;;;;;35.97;20.77;;;;;;;6.13;72.16;99120.38;5050301;28;20044;-71
2023/04/09 00:31:46;;;;;;;34.85;19.48;;;;;;;6.11;71.81;99122.53;5049627;28;20045;-71
2023/04/09 00:34:11;;;;;;;38.72;20.98;;;;;;;6.10;71.99;99126.31;5050000;28;20028;-71
2023/04/09 00:36:36;;;;;;;32.45;19.45;;;;;;;6.07;71.98;99133.09;5058837;28;20108;-71
2023/04/09 00:39:02;;;;;;;35.15;20.23;;;;;;;6.08;71.70;99123.03;5070108;28;20056;-71
2023/04/09 00:41:27;;;;;;;35.05;20.27;;;;;;;6.05;72.03;99127.09;5054924;28;20477;-71
2023/04/09 00:43:55;;;;;;;36.83;20.20;;;;;;;6.04;71.73;99128.16;5072201;28;20058;-72
2023/04/09 00:46:20;;;;;;;34.15;20.05;;;;;;;6.01;72.12;99131.38;5090004;28;20034;-72
2023/04/09 00:48:45;;;;;;;37.60;20.20;;;;;;;6.00;71.56;99126.13;5090244;28;20103;-71
2023/04/09 00:51:11;;;;;;;38.33;21.85;;;;;;;5.98;72.10;99131.84;5090623;28;20384;-72
2023/04/09 00:53:36;;;;;;;38.38;21.23;;;;;;;5.97;72.09;99133.72;5090883;28;20127;-71
2023/04/09 00:56:04;;;;;;;35.47;20.73;;;;;;;5.97;72.01;99130.19;5091034;28;20388;-72
2023/04/09 00:58:29;;;;;;;36.63;20.67;;;;;;;5.95;71.67;99132.34;5095395;28;20077;-72
2023/04/09 01:00:54;;;;;;;46.72;23.58;;;;;;;5.92;71.77;99136.38;5097593;28;20036;-71
2023/04/09 01:03:20;;;;;;;51.95;24.48;;;;;;;5.93;71.76;99127.13;5079516;28;20052;-72
2023/04/09 01:05:53;;;;;;;59.90;27.50;;;;;;;5.95;71.90;99130.44;5097926;28;20030;-71
2023/04/09 01:08:37;;;;;;;48.53;23.85;;;;;;;5.94;71.94;99125.25;5097920;28;20024;-71
2023/04/09 01:11:31;;;;;;;41.72;21.58;;;;;;;5.93;71.87;99139.94;5097437;28;20546;-72
2023/04/09 01:14:18;;;;;;;42.20;21.48;;;;;;;5.92;71.84;99133.66;5076366;28;20124;-72
2023/04/09 01:16:49;;;;;;;36.20;20.98;;;;;;;5.91;72.29;99140.16;5097899;28;20036;-71
2023/04/09 01:19:40;;;;;;;31.35;19.08;;;;;;;5.89;71.99;99142.34;5097793;28;20052;-71
2023/04/09 01:22:29;;;;;;;34.75;19.98;;;;;;;5.88;72.11;99139.84;5097105;28;20047;-71
2023/04/09 01:25:17;;;;;;;32.13;19.60;;;;;;;5.84;72.15;99144.97;5097250;28;20039;-71
2023/04/09 01:28:06;;;;;;;33.38;19.60;;;;;;;5.84;71.84;99146.84;5097978;28;20058;-72
2023/04/09 01:30:31;;;;;;;33.05;18.75;;;;;;;5.84;72.18;99144.97;5097716;28;20555;-72
2023/04/09 01:32:58;;;;;;;34.22;20.20;;;;;;;5.80;72.19;99143.81;5096169;28;20024;-72
2023/04/09 01:35:25;;;;;;;34.30;20.48;;;;;;;5.78;72.24;99140.53;5096668;28;20500;-72
2023/04/09 01:37:53;;;;;;;33.65;20.13;;;;;;;5.75;71.89;99141.81;5096505;28;20296;-72
2023/04/09 01:40:18;;;;;;;34.30;20.23;;;;;;;5.72;72.09;99152.38;5097624;28;20062;-71
2023/04/09 01:42:45;;;;;;;37.97;21.52;;;;;;;5.69;72.28;99147.44;5096865;28;20074;-71
2023/04/09 01:45:14;;;;;;;35.80;21.77;;;;;;;5.62;71.96;99145.69;5097475;28;20106;-72
2023/04/09 01:47:40;;;;;;;43.35;24.00;;;;;;;5.62;72.07;99156.59;5097529;28;20020;-72
2023/04/09 01:50:05;;;;;;;40.72;23.48;;;;;;;5.62;72.17;99158.50;5097558;28;20049;-72
2023/04/09 01:52:31;;;;;;;41.03;22.70;;;;;;;5.61;71.88;99154.94;5097135;28;20020;-71
2023/04/09 01:54:56;;;;;;;40.88;22.77;;;;;;;5.60;71.98;99155.19;5097460;28;20089;-71
2023/04/09 01:57:22;;;;;;;37.10;21.60;;;;;;;5.58;72.39;99152.72;5097449;28;20027;-72
2023/04/09 01:59:47;;;;;;;39.38;22.40;;;;;;;5.55;72.32;99155.09;5097251;28;20489;-72
2023/04/09 02:02:20;;;;;;;38.55;21.85;;;;;;;5.51;72.08;99157.47;5093227;28;20022;-72
2023/04/09 02:04:48;;;;;;;41.88;23.98;;;;;;;5.51;72.34;99147.44;5096724;28;20369;-72
2023/04/09 02:07:19;;;;;;;37.70;21.73;;;;;;;5.51;72.38;99150.16;5096454;28;20048;-72
2023/04/09 02:09:47;;;;;;;39.38;22.42;;;;;;;5.49;72.39;99151.47;5094494;28;20449;-72
2023/04/09 02:12:17;;;;;;;41.22;23.25;;;;;;;5.47;72.52;99159.06;5093354;28;20100;-71
2023/04/09 02:14:45;;;;;;;52.92;26.83;;;;;;;5.46;72.52;99151.97;5093602;28;20047;-72
2023/04/09 02:17:12;;;;;;;56.80;28.23;;;;;;;5.49;72.37;99151.47;5094166;28;20103;-71
2023/04/09 02:19:41;;;;;;;50.03;26.52;;;;;;;5.50;72.82;99153.13;5093857;28;20107;-72
2023/04/09 02:22:07;;;;;;;;;;;;;;;5.52;72.67;99150.97;5093627;28;20099;-72
2023/04/09 02:24:32;;;;;;;43.88;22.45;;;;;;;5.54;72.73;99156.97;5093849;28;20363;-72
2023/04/09 02:26:58;;;;;;;43.95;24.27;;;;;;;5.49;72.33;99155.00;5093545;28;20096;-72
2023/04/09 02:29:23;;;;;;;42.97;22.35;;;;;;;5.46;72.51;99150.06;5093673;28;20127;-71
2023/04/09 02:31:51;;;;;;;40.17;22.02;;;;;;;5.44;72.48;99152.19;5093278;28;20074;-72
2023/04/09 02:34:17;;;;;;;39.55;22.08;;;;;;;5.42;72.40;99153.53;5093839;28;20538;-72
2023/04/09 02:36:43;;;;;;;37.88;21.40;;;;;;;5.39;72.87;99152.09;5093339;28;20020;-72
2023/04/09 02:39:08;;;;;;;35.58;20.85;;;;;;;5.39;72.34;99148.56;5093801;28;20032;-72
2023/04/09 02:41:33;;;;;;;37.20;20.95;;;;;;;5.39;72.39;99143.13;5093074;28;20020;-72
2023/04/09 02:43:59;;;;;;;37.25;20.92;;;;;;;5.38;72.38;99155.09;5092850;28;20519;-71
2023/04/09 02:46:24;;;;;;;35.42;20.25;;;;;;;5.34;72.39;99147.41;5093167;28;20240;-72
2023/04/09 02:48:49;;;;;;;37.63;20.73;;;;;;;5.34;72.74;99139.25;5093585;28;20079;-72
2023/04/09 02:51:15;;;;;;;32.75;19.05;;;;;;;5.35;72.64;99143.63;5093140;28;20077;-72
2023/04/09 02:53:40;;;;;;;32.08;18.45;;;;;;;5.36;72.99;99142.56;5093052;28;20052;-72
2023/04/09 02:56:06;;;;;;;32.53;17.15;;;;;;;5.34;72.43;99146.56;5093094;28;20023;-72
2023/04/09 02:58:31;;;;;;;36.17;20.10;;;;;;;5.33;72.53;99148.47;5092858;28;20020;-72
2023/04/09 03:00:56;;;;;;;35.80;20.55;;;;;;;5.32;72.67;99151.44;5092615;28;20028;-72
2023/04/09 03:03:22;;;;;;;35.15;19.38;;;;;;;5.30;73.20;99148.97;5092487;28;20027;-71
2023/04/09 03:05:47;;;;;;;33.08;19.48;;;;;;;5.30;73.17;99153.59;5092978;28;20103;-72
2023/04/09 03:08:12;;;;;;;33.58;19.42;;;;;;;5.32;73.08;99152.28;5093087;28;20078;-72
2023/04/09 03:10:38;;;;;;;32.67;19.92;;;;;;;5.32;73.27;99149.53;5093085;28;20039;-72
2023/04/09 03:13:03;;;;;;;31.40;19.00;;;;;;;5.34;72.57;99149.28;5093825;28;20024;-71
2023/04/09 03:15:29;;;;;;;33.13;19.75;;;;;;;5.30;73.28;99148.16;5093820;28;20036;-72
2023/04/09 03:17:54;;;;;;;37.53;20.65;;;;;;;5.30;73.14;99154.41;5076615;28;20387;-72
2023/04/09 03:20:19;;;;;;;33.30;20.27;;;;;;;5.29;73.14;99163.63;5093556;28;20024;-72
2023/04/09 03:22:45;;;;;;;38.65;23.02;;;;;;;5.28;72.64;99148.38;5092255;28;20103;-72
2023/04/09 03:25:10;;;;;;;40.03;23.58;;;;;;;5.29;72.98;99151.94;5092725;28;20028;-72
2023/04/09 03:27:35;;;;;;;39.03;23.15;;;;;;;5.27;72.81;99148.66;5092582;28;20063;-72
2023/04/09 03:30:02;;;;;;;37.75;23.58;;;;;;;5.25;72.94;99162.47;5092070;28;20434;-72
2023/04/09 03:32:27;;;;;;;39.17;22.73;;;;;;;5.24;72.99;99152.66;5092213;28;20484;-72
2023/04/09 03:34:52;;;;;;;37.80;22.88;;;;;;;5.25;73.33;99148.88;5092530;28;20057;-72
2023/04/09 03:37:18;;;;;;;39.92;23.70;;;;;;;5.27;73.31;99145.94;5092567;28;20447;-72
2023/04/09 03:39:43;;;;;;;40.78;24.98;;;;;;;5.28;73.50;99148.38;5092612;28;20024;-72
2023/04/09 03:42:09;;;;;;;41.85;24.90;;;;;;;5.29;73.25;99138.34;5092089;28;20040;-72
2023/04/09 03:44:34;;;;;;;46.78;27.38;;;;;;;5.31;73.26;99147.91;5091963;28;20515;-72
2023/04/09 03:46:59;;;;;;;52.38;27.83;;;;;;;5.31;73.37;99153.34;5091717;28;20150;-72
2023/04/09 03:49:25;;;;;;;47.55;25.45;;;;;;;5.32;73.69;99151.44;5092303;28;20376;-72
2023/04/09 03:51:50;;;;;;;65.55;29.55;;;;;;;5.31;73.24;99147.91;5091286;28;20062;-73
2023/04/09 03:54:16;;;;;;;70.25;31.40;;;;;;;5.31;73.35;99155.22;5092136;28;20031;-73
2023/04/09 03:56:41;;;;;;;76.60;33.88;;;;;;;5.30;73.21;99157.13;5092318;28;20469;-72
2023/04/09 03:59:06;;;;;;;73.65;32.25;;;;;;;5.29;73.38;99160.91;5092034;28;20549;-72
2023/04/09 04:01:33;;;;;;;71.72;31.55;;;;;;;5.30;73.25;99148.97;5091289;28;20024;-72
2023/04/09 04:03:59;;;;;;;67.82;32.03;;;;;;;5.32;73.79;99149.53;5092252;28;20032;-72
2023/04/09 04:06:24;;;;;;;63.38;29.52;;;;;;;5.34;73.46;99150.13;5073588;28;20093;-72
2023/04/09 04:08:50;;;;;;;62.10;29.48;;;;;;;5.38;73.73;99153.19;5091838;28;20034;-72
2023/04/09 04:11:15;;;;;;;54.47;27.17;;;;;;;5.41;74.03;99149.16;5091598;28;20024;-73
2023/04/09 04:13:40;;;;;;;49.90;26.02;;;;;;;5.44;73.78;99151.38;5091442;28;20033;-72
2023/04/09 04:16:08;;;;;;;50.67;27.00;;;;;;;5.45;73.44;99155.75;5091794;28;20464;-72
2023/04/09 04:18:34;;;;;;;64.45;31.52;;;;;;;5.48;73.57;99142.47;5091898;28;20361;-72
2023/04/09 04:20:59;;;;;;;57.40;29.27;;;;;;;5.51;73.56;99152.03;5091874;28;20036;-72
2023/04/09 04:23:24;;;;;;;55.72;28.98;;;;;;;5.51;73.89;99146.59;5091365;28;20036;-72
2023/04/09 04:25:51;;;;;;;47.53;26.50;;;;;;;5.51;73.59;99150.16;5091831;28;20111;-72
2023/04/09 04:28:17;;;;;;;50.10;25.73;;;;;;;5.50;73.39;99150.41;5091577;28;20023;-72
2023/04/09 04:30:43;;;;;;;45.50;24.67;;;;;;;5.50;73.27;99153.13;5091485;28;20031;-72
2023/04/09 04:33:08;;;;;;;42.80;23.38;;;;;;;5.49;73.55;99156.91;5090729;28;20065;-72
2023/04/09 04:35:33;;;;;;;37.95;22.08;;;;;;;5.48;73.62;99163.44;5091514;28;20174;-72
2023/04/09 04:38:00;;;;;;;38.42;20.92;;;;;;;5.50;73.44;99166.75;5091816;28;20063;-72
2023/04/09 04:40:25;;;;;;;39.55;22.27;;;;;;;5.50;73.75;99158.56;5091754;28;20024;-72
2023/04/09 04:42:51;;;;;;;40.20;23.13;;;;;;;5.49;73.76;99165.09;5090832;28;20054;-72
2023/04/09 04:45:16;;;;;;;37.88;22.73;;;;;;;5.48;73.81;99156.09;5091716;28;20016;-72
2023/04/09 04:47:41;;;;;;;38.83;22.20;;;;;;;5.49;74.04;99159.66;5091577;28;20030;-72
2023/04/09 04:50:07;;;;;;;36.95;21.10;;;;;;;5.50;73.55;99164.81;5091736;28;20066;-72
2023/04/09 04:52:33;;;;;;;36.13;20.67;;;;;;;5.50;74.06;99170.25;5091011;28;20032;-72
2023/04/09 04:54:58;;;;;;;37.50;21.23;;;;;;;5.50;73.74;99169.47;5091512;28;20472;-72
2023/04/09 04:57:24;;;;;;;37.17;20.13;;;;;;;5.52;73.82;99175.44;5091382;28;20059;-72
2023/04/09 04:59:49;;;;;;;36.97;21.85;;;;;;;5.54;74.10;99167.88;5091545;28;20032;-73
2023/04/09 05:02:14;;;;;;;42.10;24.02;;;;;;;5.57;74.02;99175.53;5091226;28;20078;-72
2023/04/09 05:04:40;;;;;;;43.10;23.60;;;;;;;5.61;73.99;99168.53;5091600;28;20027;-73
2023/04/09 05:07:05;;;;;;;41.95;23.48;;;;;;;5.66;74.16;99176.00;5091603;28;20515;-72
2023/04/09 05:09:30;;;;;;;37.47;22.05;;;;;;;5.72;74.24;99169.53;5091732;28;20036;-72
2023/04/09 05:11:56;;;;;;;37.90;22.75;;;;;;;5.78;73.99;99175.91;5091039;28;20453;-72
2023/04/09 05:14:21;;;;;;;42.08;27.65;;;;;;;5.80;74.22;99180.00;5091601;28;20034;-72
2023/04/09 05:16:47;;;;;;;37.53;23.05;;;;;;;5.83;74.48;99170.56;5091789;28;20028;-71
2023/04/09 05:19:12;;;;;;;40.95;22.38;;;;;;;5.88;74.19;99180.69;5091661;28;20024;-72
2023/04/09 05:21:38;;;;;;;38.72;22.20;;;;;;;5.93;73.94;99184.31;5091777;28;20043;-73
2023/04/09 05:24:03;;;;;;;43.17;24.70;;;;;;;5.96;74.56;99181.09;5091960;28;20069;-72
2023/04/09 05:26:29;;;;;;;38.28;22.70;;;;;;;6.02;74.34;99181.19;5092320;28;20020;-72
2023/04/09 05:28:54;;;;;;;36.45;22.30;;;;;;;6.07;74.27;99181.28;5091968;28;20020;-72
2023/04/09 05:31:20;;;;;;;39.65;21.55;;;;;;;6.10;74.50;99191.69;5091864;28;20073;-72
2023/04/09 05:33:45;;;;;;;39.17;23.35;;;;;;;6.13;74.72;99185.75;5091499;28;20031;-72
2023/04/09 05:36:15;;;;;;;42.40;24.65;;;;;;;6.17;74.47;99189.63;5091808;28;20400;-73
2023/04/09 05:38:41;;;;;;;48.90;28.02;;;;;;;6.21;74.44;99189.94;5091651;28;20027;-72
2023/04/09 05:41:07;;;;;;;55.00;30.23;;;;;;;6.24;74.62;99190.28;5091754;28;20028;-72
2023/04/09 05:43:32;;;;;;;62.42;34.53;;;;;;;6.29;74.34;99186.78;5061761;28;20045;-71
2023/04/09 05:45:58;;;;;;;68.30;35.22;;;;;;;6.34;74.83;99192.31;5054763;28;20025;-72
2023/04/09 05:48:23;;;;;;;54.63;28.33;;;;;;;6.40;74.58;99195.94;5055538;28;20108;-72
2023/04/09 05:50:52;;;;;;;49.70;27.00;;;;;;;6.48;74.84;99203.69;5054804;28;20378;-72
2023/04/09 05:53:18;;;;;;;47.83;23.95;;;;;;;6.52;74.48;99204.84;5054287;28;20032;-72
2023/04/09 05:55:45;;;;;;;43.30;23.90;;;;;;;6.56;74.74;99207.88;5053932;28;20025;-71
2023/04/09 05:58:11;;;;;;;44.45;25.38;;;;;;;6.58;74.63;99202.19;5054510;28;20028;-72
2023/04/09 06:00:37;;;;;;;43.13;24.20;;;;;;;6.59;74.55;99206.56;5054156;28;20072;-72
2023/04/09 06:03:03;;;;;;;41.20;23.42;;;;;;;6.63;74.69;99202.25;5053745;28;20024;-72
2023/04/09 06:05:28;;;;;;;55.03;38.72;;;;;;;6.66;74.52;99209.94;5054126;28;20021;-72
2023/04/09 06:07:53;;;;;;;44.55;25.42;;;;;;;6.68;75.06;99203.13;5054183;28;20519;-72
2023/04/09 06:10:19;;;;;;;44.88;26.65;;;;;;;6.67;74.83;99209.66;5054069;28;20082;-72
2023/04/09 06:12:44;;;;;;;41.38;24.75;;;;;;;6.68;74.83;99219.50;5053475;28;20044;-72
2023/04/09 06:15:10;;;;;;;41.75;25.20;;;;;;;6.72;74.71;99214.38;5054002;28;20025;-72
2023/04/09 06:17:36;;;;;;;44.80;26.92;;;;;;;6.70;74.62;99217.34;5054085;28;20021;-72
2023/04/09 06:20:01;;;;;;;40.80;24.60;;;;;;;6.70;74.63;99217.34;5054009;28;20021;-72
2023/04/09 06:22:26;;;;;;;41.50;25.05;;;;;;;6.73;74.90;99220.66;5053119;28;20049;-72
2023/04/09 06:24:52;;;;;;;43.97;26.05;;;;;;;6.77;74.79;99222.59;5053902;28;20025;-72
2023/04/09 06:27:17;;;;;;;36.85;21.20;;;;;;;6.83;75.11;99226.25;5054023;28;20477;-72
2023/04/09 06:29:45;;;;;;;38.60;21.92;;;;;;;6.80;74.82;99224.81;5054024;28;20402;-72
2023/04/09 06:32:10;;;;;;;34.25;20.00;;;;;;;6.82;74.94;99222.66;5053164;28;20489;-72
2023/04/09 06:34:35;;;;;;;33.03;17.67;;;;;;;6.85;74.74;99224.91;5053835;28;20091;-72
2023/04/09 06:37:01;;;;;;;31.15;18.58;;;;;;;6.84;74.48;99230.63;5053606;28;20032;-72
2023/04/09 06:39:26;;;;;;;31.60;17.98;;;;;;;6.86;74.79;99223.00;5053865;28;20025;-72
2023/04/09 06:41:52;;;;;;;30.55;18.08;;;;;;;6.85;74.62;99229.53;5051795;28;20512;-71
2023/04/09 06:44:18;;;;;;;31.08;18.48;;;;;;;6.89;74.83;99225.22;5082133;28;20040;-72
2023/04/09 06:46:45;;;;;;;35.30;20.30;;;;;;;6.93;74.96;99226.34;5093263;28;20098;-73
2023/04/09 06:49:11;;;;;;;32.85;19.02;;;;;;;6.93;74.37;99223.63;5093554;28;20028;-73
2023/04/09 06:51:36;;;;;;;33.92;19.35;;;;;;;6.98;74.56;99231.06;5092658;28;20379;-72
2023/04/09 06:54:02;;;;;;;46.35;23.90;;;;;;;7.00;74.72;99237.91;5092970;28;20021;-72
2023/04/09 06:56:27;;;;;;;65.90;27.52;;;;;;;7.03;74.80;99227.56;5092552;28;20026;-72
2023/04/09 06:58:52;;;;;;;40.70;21.48;;;;;;;7.03;74.53;99230.28;5093329;28;20020;-72
2023/04/09 07:01:18;;;;;;;55.35;26.75;;;;;;;7.06;74.69;99225.16;5093064;28;20043;-72
2023/04/09 07:03:44;;;;;;;44.17;24.70;;;;;;;7.08;74.59;99228.47;5092919;28;20323;-72
2023/04/09 07:06:09;;;;;;;41.35;21.92;;;;;;;7.12;74.42;99232.34;5093120;28;20460;-73
2023/04/09 07:08:35;;;;;;;40.40;21.60;;;;;;;7.17;74.38;99226.13;5092774;28;20028;-72
2023/04/09 07:11:00;;;;;;;44.67;23.73;;;;;;;7.24;74.77;99231.38;5092772;28;20020;-72
2023/04/09 07:13:26;;;;;;;43.78;24.27;;;;;;;7.27;74.53;99228.97;5092804;28;20502;-72
2023/04/09 07:15:51;;;;;;;33.70;20.50;;;;;;;7.28;74.64;99230.63;5092903;28;20392;-73
2023/04/09 07:18:16;;;;;;;42.95;23.95;;;;;;;7.35;74.88;99232.28;5093084;28;20081;-73
2023/04/09 07:20:42;;;;;;;37.45;21.58;;;;;;;7.40;74.75;99233.19;5092592;28;20471;-72
2023/04/09 07:23:07;;;;;;;42.03;23.50;;;;;;;7.50;74.64;99229.75;5092100;28;20063;-72
2023/04/09 07:25:33;;;;;;;44.95;25.38;;;;;;;7.55;74.89;99231.69;5092416;28;20028;-73
2023/04/09 07:27:58;;;;;;;46.40;26.63;;;;;;;7.62;74.58;99237.78;5092365;28;20024;-72
2023/04/09 07:30:24;;;;;;;39.88;23.48;;;;;;;7.67;74.60;99243.28;5092374;28;20062;-72
2023/04/09 07:32:50;;;;;;;36.03;20.58;;;;;;;7.69;74.58;99235.66;5092107;28;20020;-74
2023/04/09 07:35:17;;;;;;;31.85;19.65;;;;;;;7.68;74.59;99244.13;5091821;28;20076;-71
2023/04/09 07:37:42;;;;;;;36.20;20.35;;;;;;;7.72;74.57;99237.06;5092129;28;20020;-72
2023/04/09 07:40:08;;;;;;;37.03;20.83;;;;;;;7.81;74.33;99235.50;5091848;28;20363;-72
2023/04/09 07:42:36;;;;;;;40.65;21.77;;;;;;;7.92;74.72;99243.78;5091753;28;20031;-72
2023/04/09 07:45:02;;;;;;;29.98;18.52;;;;;;;7.95;74.17;99237.81;5071802;28;20036;-72
2023/04/09 07:47:28;;;;;;;30.27;18.08;;;;;;;7.99;74.16;99237.03;5072181;28;20047;-72
2023/04/09 07:49:53;;;;;;;29.98;17.90;;;;;;;7.97;74.43;99238.38;5071795;28;20104;-72
2023/04/09 07:52:19;;;;;;;30.48;19.35;;;;;;;8.01;73.85;99239.50;5071128;28;20115;-72
2023/04/09 07:54:44;;;;;;;46.92;23.33;;;;;;;8.04;73.92;99241.72;5071374;28;20370;-72
2023/04/09 07:57:10;;;;;;;54.70;28.60;;;;;;;8.07;74.14;99245.84;5058657;28;20057;-71
2023/04/09 07:59:35;;;;;;;34.65;20.08;;;;;;;8.09;74.37;99241.78;5052516;28;20055;-71
2023/04/09 08:02:01;;;;;;;35.65;20.40;;;;;;;8.11;74.02;99244.22;5051973;28;20040;-71
2023/04/09 08:04:26;;;;;;;39.63;22.13;;;;;;;8.08;73.51;99245.59;5052443;28;20029;-72
2023/04/09 08:06:52;;;;;;;34.58;19.23;;;;;;;8.14;73.72;99241.81;5057050;28;20025;-70
2023/04/09 08:09:19;;;;;;;34.95;20.38;;;;;;;8.22;73.88;99237.78;5070127;28;20057;-71
2023/04/09 08:11:45;;;;;;;37.97;21.90;;;;;;;8.24;73.35;99242.97;5069437;28;20025;-71
2023/04/09 08:14:14;;;;;;;36.15;20.73;;;;;;;8.28;73.96;99241.34;5049164;28;20036;-71
2023/04/09 08:16:41;;;;;;;34.35;20.38;;;;;;;8.33;74.06;99236.78;5050608;28;20057;-72
2023/04/09 08:19:08;;;;;;;31.48;19.23;;;;;;;8.41;73.54;99237.34;5050528;28;20033;-72
2023/04/09 08:21:36;;;;;;;31.77;19.60;;;;;;;8.51;73.23;99245.66;5050353;28;20025;-72
2023/04/09 08:24:03;;;;;;;35.22;19.85;;;;;;;8.57;73.85;99244.59;5049506;28;20029;-72
2023/04/09 08:26:29;;;;;;;34.53;18.92;;;;;;;8.64;73.56;99249.84;5050413;28;20433;-72
2023/04/09 08:28:55;;;;;;;36.53;21.17;;;;;;;8.69;73.78;99238.94;5050833;28;20584;-73
2023/04/09 08:31:20;;;;;;;32.55;19.45;;;;;;;8.72;73.02;99251.28;5052568;28;20025;-74
2023/04/09 08:33:46;;;;;;;34.20;20.17;;;;;;;8.65;72.71;99248.75;5050620;28;20035;-74
2023/04/09 08:36:11;;;;;;;35.83;20.48;;;;;;;8.57;73.02;99251.97;5050679;28;20029;-73
2023/04/09 08:38:36;;;;;;;34.15;20.42;;;;;;;8.55;72.61;99252.25;5051105;28;20025;-75
2023/04/09 08:41:02;;;;;;;35.70;20.48;;;;;;;8.61;73.58;99253.94;5050484;28;20029;-75
2023/04/09 08:43:29;;;;;;;35.20;21.23;;;;;;;8.64;72.90;99250.66;5065085;28;20044;-76
2023/04/09 08:45:56;;;;;;;39.22;22.27;;;;;;;8.62;73.00;99252.84;5090617;28;20065;-76
2023/04/09 08:48:23;;;;;;;35.47;20.92;;;;;;;8.64;73.31;99253.41;5090662;28;20495;-77
2023/04/09 08:50:49;;;;;;;37.38;22.05;;;;;;;8.66;73.08;99255.06;5090246;28;20031;-78
2023/04/09 08:53:16;;;;;;;39.90;23.77;;;;;;;8.65;72.81;99262.41;5070631;28;20020;-76
2023/04/09 08:55:45;;;;;;;38.58;24.00;;;;;;;8.67;72.93;99259.44;5089861;28;20036;-76
2023/04/09 08:58:11;;;;;;;36.40;22.02;;;;;;;8.64;73.13;99258.88;5090609;28;20032;-75
2023/04/09 09:00:36;;;;;;;36.47;21.60;;;;;;;8.66;73.04;99255.06;5072283;28;20450;-76
2023/04/09 09:03:03;;;;;;;37.70;21.17;;;;;;;8.69;72.28;99252.59;5071756;28;20031;-76
2023/04/09 09:05:42;;;;;;;39.40;24.00;;;;;;;8.69;72.30;99258.06;5072391;28;20103;-76
2023/04/09 09:08:10;;;;;;;37.75;23.35;;;;;;;8.72;72.48;99254.00;5089922;28;20051;-76
2023/04/09 09:10:36;;;;;;;46.05;27.98;;;;;;;8.64;72.81;99256.13;5090195;28;20486;-79
2023/04/09 09:13:15;;;;;;;41.65;25.38;;;;;;;8.71;72.70;99252.34;5090252;28;20077;-75
2023/04/09 09:15:41;;;;;;;48.97;27.88;;;;;;;8.77;72.80;99254.84;5089773;28;20067;-75
2023/04/09 09:18:06;;;;;;;40.28;24.52;;;;;;;8.78;72.98;99253.75;5090195;28;20055;-76
2023/04/09 09:20:31;;;;;;;37.95;22.90;;;;;;;8.85;72.53;99258.16;5094153;28;20059;-76
2023/04/09 09:22:57;;;;;;;41.42;25.10;;;;;;;8.85;72.03;99255.44;5075790;28;20072;-77
2023/04/09 09:25:24;;;;;;;33.95;21.55;;;;;;;8.85;72.48;99252.69;5094101;28;20507;-76
2023/04/09 09:27:50;;;;;;;35.90;22.17;;;;;;;8.89;72.68;99262.84;5093974;28;20039;-76
2023/04/09 09:30:21;;;;;;;36.35;22.42;;;;;;;8.99;71.89;99255.78;5093616;28;20032;-78
2023/04/09 09:32:51;;;;;;;36.03;20.85;;;;;;;9.06;72.08;99262.66;5093173;28;20032;-78
2023/04/09 09:35:16;;;;;;;34.30;21.00;;;;;;;9.22;72.43;99258.06;5093762;28;20493;-78
2023/04/09 09:37:42;;;;;;;35.67;22.00;;;;;;;9.36;72.23;99263.03;5093539;28;20138;-77
2023/04/09 09:40:08;;;;;;;35.05;20.98;;;;;;;9.35;71.25;99256.75;5093875;28;20108;-80
2023/04/09 09:42:33;;;;;;;33.80;20.45;;;;;;;9.42;71.43;99255.66;5092873;28;20024;-76
2023/04/09 09:44:59;;;;;;;37.25;21.58;;;;;;;9.40;71.40;99264.16;5093761;28;20062;-76
2023/04/09 09:47:26;;;;;;;35.05;21.92;;;;;;;9.41;71.58;99256.75;5093690;28;20050;-77
2023/04/09 09:49:53;;;;;;;37.50;22.05;;;;;;;9.41;71.58;99265.81;5094029;28;20090;-77
2023/04/09 09:52:27;;;;;;;37.13;22.60;;;;;;;9.50;71.31;99263.34;5092693;28;20537;-76
2023/04/09 09:54:54;;;;;;;37.03;22.13;;;;;;;9.60;71.50;99265.28;5074695;28;20073;-77
2023/04/09 09:57:22;;;;;;;37.15;22.98;;;;;;;9.61;70.55;99254.09;5093381;28;20492;-76
2023/04/09 10:00:12;;;;;;;37.95;22.42;;;;;;;9.58;71.03;99262.84;5093702;28;20032;-76
2023/04/09 10:03:04;;;;;;;33.45;21.00;;;;;;;9.67;71.23;99260.38;5092714;28;20028;-76
2023/04/09 10:05:30;;;;;;;45.45;28.58;;;;;;;9.64;70.59;99255.44;5093339;28;20028;-79
2023/04/09 10:07:57;;;;;;;39.45;23.23;;;;;;;9.57;69.96;99255.72;5093092;28;20070;-78
2023/04/09 10:10:24;;;;;;;37.42;22.25;;;;;;;9.56;70.21;99251.34;5091205;28;20026;-79
2023/04/09 10:12:51;;;;;;;37.30;23.27;;;;;;;9.52;70.03;99251.06;5073072;28;20020;-80
2023/04/09 10:15:17;;;;;;;36.53;22.77;;;;;;;9.52;70.57;99252.97;5092587;28;20086;-79
2023/04/09 10:17:43;;;;;;;34.53;21.08;;;;;;;9.58;70.77;99249.16;5069616;28;20020;-80
2023/04/09 10:20:17;;;;;;;37.65;22.90;;;;;;;9.59;69.67;99252.69;5092729;28;20027;-80
2023/04/09 10:22:47;;;;;;;34.85;22.05;;;;;;;9.53;69.17;99257.34;5092225;28;20016;-80
2023/04/09 10:25:12;;;;;;;35.30;21.73;;;;;;;9.51;69.97;99251.31;5074288;28;20077;-78
2023/04/09 10:27:38;;;;;;;34.88;21.98;;;;;;;9.59;70.47;99248.06;5092463;28;20385;-79
2023/04/09 10:30:06;;;;;;;39.10;23.70;;;;;;;9.64;69.93;99245.34;5073397;28;20020;-79
2023/04/09 10:32:34;;;;;;;37.67;21.40;;;;;;;9.69;70.18;99250.00;5091053;28;20484;-79
2023/04/09 10:35:02;;;;;;;33.78;20.77;;;;;;;9.72;69.89;99240.44;5091770;28;20119;-78
2023/04/09 10:37:28;;;;;;;32.05;20.65;;;;;;;9.81;70.05;99238.78;5092450;28;20016;-76
2023/04/09 10:39:55;;;;;;;32.33;19.23;;;;;;;9.89;69.76;99235.50;5092405;28;20016;-76
2023/04/09 10:42:31;;;;;;;30.83;20.00;;;;;;;9.95;69.43;99237.16;5091493;28;20496;-76
2023/04/09 10:45:10;;;;;;;30.15;18.55;;;;;;;10.00;69.59;99236.31;5090185;28;20070;-76
2023/04/09 10:47:38;;;;;;;31.50;18.35;;;;;;;9.98;69.28;99233.06;5085694;28;20510;-77
2023/04/09 10:50:23;;;;;;;32.78;19.58;;;;;;;9.96;69.17;99233.31;5090284;28;20049;-76
2023/04/09 10:52:53;;;;;;;30.67;19.25;;;;;;;9.99;68.88;99234.69;5089227;28;20043;-76
2023/04/09 10:55:39;;;;;;;41.90;26.52;;;;;;;9.95;68.51;99236.34;5091707;28;20087;-76
2023/04/09 10:58:10;;;;;;;36.92;23.90;;;;;;;9.97;68.68;99232.22;5091649;28;20038;-75
2023/04/09 11:00:40;;;;;;;30.60;19.92;;;;;;;9.95;68.99;99226.19;5091485;28;20070;-76
2023/04/09 11:03:26;;;;;;;31.05;19.10;;;;;;;9.92;69.19;99228.66;5091439;28;20491;-75
2023/04/09 11:06:02;;;;;;;32.70;21.23;;;;;;;9.94;68.21;99229.22;5091686;28;20038;-74
2023/04/09 11:08:30;;;;;;;30.77;18.90;;;;;;;9.96;68.64;99230.56;5092057;28;20486;-76
2023/04/09 11:10:57;;;;;;;33.17;20.95;;;;;;;10.02;68.41;99225.09;5091478;28;20392;-76
2023/04/09 11:13:23;;;;;;;31.58;19.52;;;;;;;9.97;67.60;99224.00;5090541;28;20024;-76
2023/04/09 11:15:49;;;;;;;33.13;21.27;;;;;;;9.97;68.31;99226.75;5072867;28;20479;-77
2023/04/09 11:18:22;;;;;;;33.20;20.80;;;;;;;10.10;68.93;99230.84;5090833;28;20030;-74
2023/04/09 11:20:48;;;;;;;35.80;22.52;;;;;;;10.21;68.73;99226.19;5089184;28;20023;-74
2023/04/09 11:23:16;;;;;;;33.40;20.00;;;;;;;10.19;67.61;99220.16;5089259;28;20016;-74